sensor_id;sensor_type;location;lat;lon;timestamp;P1;durP1;ratioP1;P2;durP2;ratioP2
54795;SDS011;40693;43.884;20.340;2024-03-25T00:00:09;11.70;;;6.35;;
54795;SDS011;40693;43.884;20.340;2024-03-25T00:02:38;14.18;;;8.15;;
54795;SDS011;40693;43.884;20.340;2024-03-25T00:05:05;14.13;;;6.75;;
54795;SDS011;40693;43.884;20.340;2024-03-25T00:07:34;16.45;;;7.40;;
54795;SDS011;40693;43.884;20.340;2024-03-25T00:10:03;18.08;;;8.55;;
54795;SDS011;40693;43.884;20.340;2024-03-25T00:12:31;22.17;;;9.45;;
54795;SDS011;40693;43.884;20.340;2024-03-25T00:14:57;22.20;;;11.90;;
54795;SDS011;40693;43.884;20.340;2024-03-25T00:17:23;26.35;;;12.23;;
54795;SDS011;40693;43.884;20.340;2024-03-25T00:19:49;33.85;;;13.00;;
54795;SDS011;40693;43.884;20.340;2024-03-25T00:22:19;23.77;;;12.60;;
54795;SDS011;40693;43.884;20.340;2024-03-25T00:24:46;26.83;;;14.02;;
54795;SDS011;40693;43.884;20.340;2024-03-25T00:27:13;24.75;;;11.35;;
54795;SDS011;40693;43.884;20.340;2024-03-25T00:29:42;22.75;;;11.05;;
54795;SDS011;40693;43.884;20.340;2024-03-25T00:32:09;22.23;;;11.15;;
54795;SDS011;40693;43.884;20.340;2024-03-25T00:34:35;19.10;;;9.75;;
54795;SDS011;40693;43.884;20.340;2024-03-25T00:37:02;23.45;;;9.90;;
54795;SDS011;40693;43.884;20.340;2024-03-25T00:39:29;22.77;;;9.10;;
54795;SDS011;40693;43.884;20.340;2024-03-25T00:41:57;20.38;;;10.40;;
54795;SDS011;40693;43.884;20.340;2024-03-25T00:44:23;13.13;;;7.50;;
54795;SDS011;40693;43.884;20.340;2024-03-25T00:46:49;21.30;;;10.15;;
54795;SDS011;40693;43.884;20.340;2024-03-25T00:49:16;18.58;;;8.90;;
54795;SDS011;40693;43.884;20.340;2024-03-25T00:51:42;17.25;;;10.02;;
54795;SDS011;40693;43.884;20.340;2024-03-25T00:54:08;16.95;;;8.45;;
54795;SDS011;40693;43.884;20.340;2024-03-25T00:56:34;15.27;;;8.02;;
54795;SDS011;40693;43.884;20.340;2024-03-25T00:59:00;14.13;;;7.45;;
54795;SDS011;40693;43.884;20.340;2024-03-25T01:01:32;10.85;;;6.30;;
54795;SDS011;40693;43.884;20.340;2024-03-25T01:04:00;16.52;;;7.32;;
54795;SDS011;40693;43.884;20.340;2024-03-25T01:06:29;12.02;;;7.03;;
54795;SDS011;40693;43.884;20.340;2024-03-25T01:08:55;14.82;;;7.28;;
54795;SDS011;40693;43.884;20.340;2024-03-25T01:11:21;11.27;;;6.60;;
54795;SDS011;40693;43.884;20.340;2024-03-25T01:13:48;11.77;;;6.07;;
54795;SDS011;40693;43.884;20.340;2024-03-25T01:16:14;11.45;;;6.35;;
54795;SDS011;40693;43.884;20.340;2024-03-25T01:18:40;17.27;;;7.68;;
54795;SDS011;40693;43.884;20.340;2024-03-25T01:21:06;11.80;;;6.45;;
54795;SDS011;40693;43.884;20.340;2024-03-25T01:23:31;13.77;;;7.10;;
54795;SDS011;40693;43.884;20.340;2024-03-25T01:25:57;13.98;;;6.72;;
54795;SDS011;40693;43.884;20.340;2024-03-25T01:28:23;11.73;;;6.35;;
54795;SDS011;40693;43.884;20.340;2024-03-25T01:30:49;12.10;;;7.03;;
54795;SDS011;40693;43.884;20.340;2024-03-25T01:33:15;13.45;;;6.88;;
54795;SDS011;40693;43.884;20.340;2024-03-25T01:35:41;14.10;;;6.97;;
54795;SDS011;40693;43.884;20.340;2024-03-25T01:38:07;15.98;;;8.10;;
54795;SDS011;40693;43.884;20.340;2024-03-25T01:40:33;12.57;;;6.50;;
54795;SDS011;40693;43.884;20.340;2024-03-25T01:43:00;16.20;;;6.72;;
54795;SDS011;40693;43.884;20.340;2024-03-25T01:45:35;12.45;;;6.63;;
54795;SDS011;40693;43.884;20.340;2024-03-25T01:48:09;13.13;;;6.50;;
54795;SDS011;40693;43.884;20.340;2024-03-25T01:50:39;10.35;;;5.90;;
54795;SDS011;40693;43.884;20.340;2024-03-25T01:53:08;13.55;;;7.25;;
54795;SDS011;40693;43.884;20.340;2024-03-25T01:55:36;13.88;;;7.57;;
54795;SDS011;40693;43.884;20.340;2024-03-25T01:58:04;13.30;;;6.45;;
54795;SDS011;40693;43.884;20.340;2024-03-25T02:00:31;16.25;;;7.30;;
54795;SDS011;40693;43.884;20.340;2024-03-25T02:02:58;9.93;;;5.78;;
54795;SDS011;40693;43.884;20.340;2024-03-25T02:05:24;13.70;;;6.78;;
54795;SDS011;40693;43.884;20.340;2024-03-25T02:07:50;12.40;;;5.82;;
54795;SDS011;40693;43.884;20.340;2024-03-25T02:10:17;9.20;;;6.07;;
54795;SDS011;40693;43.884;20.340;2024-03-25T02:12:44;18.55;;;8.95;;
54795;SDS011;40693;43.884;20.340;2024-03-25T02:15:11;10.70;;;5.80;;
54795;SDS011;40693;43.884;20.340;2024-03-25T02:17:38;8.98;;;5.72;;
54795;SDS011;40693;43.884;20.340;2024-03-25T02:20:05;12.90;;;6.15;;
54795;SDS011;40693;43.884;20.340;2024-03-25T02:22:33;11.15;;;5.63;;
54795;SDS011;40693;43.884;20.340;2024-03-25T02:25:06;11.52;;;5.20;;
54795;SDS011;40693;43.884;20.340;2024-03-25T02:27:39;12.98;;;6.13;;
54795;SDS011;40693;43.884;20.340;2024-03-25T02:30:05;12.70;;;6.00;;
54795;SDS011;40693;43.884;20.340;2024-03-25T02:32:33;13.63;;;6.65;;
54795;SDS011;40693;43.884;20.340;2024-03-25T02:34:59;13.18;;;7.13;;
54795;SDS011;40693;43.884;20.340;2024-03-25T02:37:31;8.10;;;5.35;;
54795;SDS011;40693;43.884;20.340;2024-03-25T02:39:59;12.32;;;6.15;;
54795;SDS011;40693;43.884;20.340;2024-03-25T02:42:26;10.50;;;6.13;;
54795;SDS011;40693;43.884;20.340;2024-03-25T02:44:55;10.70;;;4.93;;
54795;SDS011;40693;43.884;20.340;2024-03-25T02:47:21;9.98;;;5.38;;
54795;SDS011;40693;43.884;20.340;2024-03-25T02:49:48;12.32;;;6.50;;
54795;SDS011;40693;43.884;20.340;2024-03-25T02:52:14;12.48;;;5.82;;
54795;SDS011;40693;43.884;20.340;2024-03-25T02:54:39;11.40;;;6.78;;
54795;SDS011;40693;43.884;20.340;2024-03-25T02:57:05;15.98;;;7.00;;
54795;SDS011;40693;43.884;20.340;2024-03-25T02:59:31;18.67;;;7.30;;
54795;SDS011;40693;43.884;20.340;2024-03-25T03:01:57;19.00;;;8.43;;
54795;SDS011;40693;43.884;20.340;2024-03-25T03:04:23;17.85;;;8.95;;
54795;SDS011;40693;43.884;20.340;2024-03-25T03:06:49;17.52;;;8.23;;
54795;SDS011;40693;43.884;20.340;2024-03-25T03:09:15;15.20;;;7.95;;
54795;SDS011;40693;43.884;20.340;2024-03-25T03:11:41;17.13;;;7.75;;
54795;SDS011;40693;43.884;20.340;2024-03-25T03:14:06;11.82;;;6.05;;
54795;SDS011;40693;43.884;20.340;2024-03-25T03:16:32;12.73;;;5.90;;
54795;SDS011;40693;43.884;20.340;2024-03-25T03:18:58;13.33;;;7.00;;
54795;SDS011;40693;43.884;20.340;2024-03-25T03:21:24;11.48;;;6.47;;
54795;SDS011;40693;43.884;20.340;2024-03-25T03:23:50;14.45;;;6.53;;
54795;SDS011;40693;43.884;20.340;2024-03-25T03:26:16;13.67;;;6.80;;
54795;SDS011;40693;43.884;20.340;2024-03-25T03:28:42;12.50;;;6.80;;
54795;SDS011;40693;43.884;20.340;2024-03-25T03:31:07;12.33;;;5.80;;
54795;SDS011;40693;43.884;20.340;2024-03-25T03:33:34;14.25;;;6.88;;
54795;SDS011;40693;43.884;20.340;2024-03-25T03:35:59;18.20;;;7.72;;
54795;SDS011;40693;43.884;20.340;2024-03-25T03:38:25;13.80;;;5.70;;
54795;SDS011;40693;43.884;20.340;2024-03-25T03:43:27;13.95;;;6.47;;
54795;SDS011;40693;43.884;20.340;2024-03-25T03:45:53;15.35;;;7.85;;
54795;SDS011;40693;43.884;20.340;2024-03-25T03:48:18;14.73;;;6.40;;
54795;SDS011;40693;43.884;20.340;2024-03-25T03:50:45;10.67;;;6.17;;
54795;SDS011;40693;43.884;20.340;2024-03-25T03:53:11;12.32;;;6.38;;
54795;SDS011;40693;43.884;20.340;2024-03-25T03:55:37;12.15;;;5.32;;
54795;SDS011;40693;43.884;20.340;2024-03-25T03:58:03;14.57;;;7.28;;
54795;SDS011;40693;43.884;20.340;2024-03-25T04:00:29;11.65;;;5.93;;
54795;SDS011;40693;43.884;20.340;2024-03-25T04:02:59;13.60;;;5.82;;
54795;SDS011;40693;43.884;20.340;2024-03-25T04:05:27;10.10;;;4.50;;
54795;SDS011;40693;43.884;20.340;2024-03-25T04:07:54;12.20;;;5.30;;
54795;SDS011;40693;43.884;20.340;2024-03-25T04:10:20;10.95;;;6.05;;
54795;SDS011;40693;43.884;20.340;2024-03-25T04:12:46;11.75;;;6.35;;
54795;SDS011;40693;43.884;20.340;2024-03-25T04:15:12;10.63;;;4.88;;
54795;SDS011;40693;43.884;20.340;2024-03-25T04:17:43;10.77;;;5.80;;
54795;SDS011;40693;43.884;20.340;2024-03-25T04:20:10;16.20;;;5.95;;
54795;SDS011;40693;43.884;20.340;2024-03-25T04:22:37;14.53;;;5.20;;
54795;SDS011;40693;43.884;20.340;2024-03-25T04:25:07;11.73;;;6.03;;
54795;SDS011;40693;43.884;20.340;2024-03-25T04:27:37;13.63;;;7.23;;
54795;SDS011;40693;43.884;20.340;2024-03-25T04:30:05;12.30;;;5.00;;
54795;SDS011;40693;43.884;20.340;2024-03-25T04:32:32;12.80;;;6.57;;
54795;SDS011;40693;43.884;20.340;2024-03-25T04:34:58;16.43;;;6.37;;
54795;SDS011;40693;43.884;20.340;2024-03-25T04:37:24;16.23;;;6.93;;
54795;SDS011;40693;43.884;20.340;2024-03-25T04:39:50;13.10;;;6.45;;
54795;SDS011;40693;43.884;20.340;2024-03-25T04:42:16;16.23;;;8.40;;
54795;SDS011;40693;43.884;20.340;2024-03-25T04:44:42;15.57;;;6.90;;
54795;SDS011;40693;43.884;20.340;2024-03-25T04:47:07;14.57;;;7.30;;
54795;SDS011;40693;43.884;20.340;2024-03-25T04:49:33;17.42;;;7.65;;
54795;SDS011;40693;43.884;20.340;2024-03-25T04:51:59;12.95;;;5.60;;
54795;SDS011;40693;43.884;20.340;2024-03-25T04:54:25;10.57;;;5.27;;
54795;SDS011;40693;43.884;20.340;2024-03-25T04:56:51;9.85;;;6.20;;
54795;SDS011;40693;43.884;20.340;2024-03-25T04:59:16;11.95;;;5.90;;
54795;SDS011;40693;43.884;20.340;2024-03-25T05:01:42;8.57;;;4.60;;
54795;SDS011;40693;43.884;20.340;2024-03-25T05:04:08;19.70;;;8.60;;
54795;SDS011;40693;43.884;20.340;2024-03-25T05:06:34;14.83;;;7.30;;
54795;SDS011;40693;43.884;20.340;2024-03-25T05:09:00;17.23;;;8.87;;
54795;SDS011;40693;43.884;20.340;2024-03-25T05:11:26;33.70;;;14.30;;
54795;SDS011;40693;43.884;20.340;2024-03-25T05:13:52;34.13;;;15.63;;
54795;SDS011;40693;43.884;20.340;2024-03-25T05:16:18;28.37;;;13.93;;
54795;SDS011;40693;43.884;20.340;2024-03-25T05:18:44;15.13;;;7.63;;
54795;SDS011;40693;43.884;20.340;2024-03-25T05:21:10;16.03;;;6.33;;
54795;SDS011;40693;43.884;20.340;2024-03-25T05:23:36;11.83;;;6.13;;
54795;SDS011;40693;43.884;20.340;2024-03-25T05:26:01;16.97;;;8.97;;
54795;SDS011;40693;43.884;20.340;2024-03-25T05:28:27;16.37;;;7.97;;
54795;SDS011;40693;43.884;20.340;2024-03-25T05:30:53;8.40;;;4.50;;
54795;SDS011;40693;43.884;20.340;2024-03-25T05:33:19;7.93;;;4.60;;
54795;SDS011;40693;43.884;20.340;2024-03-25T05:35:45;14.47;;;7.57;;
54795;SDS011;40693;43.884;20.340;2024-03-25T05:38:11;11.07;;;5.97;;
54795;SDS011;40693;43.884;20.340;2024-03-25T05:40:36;12.17;;;6.67;;
54795;SDS011;40693;43.884;20.340;2024-03-25T05:43:02;22.63;;;9.10;;
54795;SDS011;40693;43.884;20.340;2024-03-25T05:45:28;15.87;;;8.27;;
54795;SDS011;40693;43.884;20.340;2024-03-25T05:47:54;16.50;;;8.25;;
54795;SDS011;40693;43.884;20.340;2024-03-25T05:50:20;12.90;;;6.70;;
54795;SDS011;40693;43.884;20.340;2024-03-25T05:52:46;73.10;;;31.83;;
54795;SDS011;40693;43.884;20.340;2024-03-25T05:55:12;35.17;;;17.37;;
54795;SDS011;40693;43.884;20.340;2024-03-25T05:57:38;19.50;;;10.23;;
54795;SDS011;40693;43.884;20.340;2024-03-25T06:00:04;15.50;;;7.78;;
54795;SDS011;40693;43.884;20.340;2024-03-25T06:02:32;15.45;;;7.93;;
54795;SDS011;40693;43.884;20.340;2024-03-25T06:04:58;9.05;;;6.40;;
54795;SDS011;40693;43.884;20.340;2024-03-25T06:07:24;15.15;;;7.72;;
54795;SDS011;40693;43.884;20.340;2024-03-25T06:09:50;10.02;;;5.22;;
54795;SDS011;40693;43.884;20.340;2024-03-25T06:12:16;8.48;;;4.88;;
54795;SDS011;40693;43.884;20.340;2024-03-25T06:14:41;10.57;;;4.55;;
54795;SDS011;40693;43.884;20.340;2024-03-25T06:17:08;10.80;;;4.85;;
54795;SDS011;40693;43.884;20.340;2024-03-25T06:19:44;10.07;;;4.47;;
54795;SDS011;40693;43.884;20.340;2024-03-25T06:22:10;6.78;;;3.78;;
54795;SDS011;40693;43.884;20.340;2024-03-25T06:24:39;10.80;;;4.95;;
54795;SDS011;40693;43.884;20.340;2024-03-25T06:27:04;9.45;;;4.97;;
54795;SDS011;40693;43.884;20.340;2024-03-25T06:29:30;18.13;;;8.10;;
54795;SDS011;40693;43.884;20.340;2024-03-25T06:31:56;10.50;;;6.10;;
54795;SDS011;40693;43.884;20.340;2024-03-25T06:34:40;9.57;;;6.00;;
54795;SDS011;40693;43.884;20.340;2024-03-25T06:37:07;10.52;;;6.15;;
54795;SDS011;40693;43.884;20.340;2024-03-25T06:39:36;11.93;;;6.20;;
54795;SDS011;40693;43.884;20.340;2024-03-25T06:42:04;9.90;;;4.82;;
54795;SDS011;40693;43.884;20.340;2024-03-25T06:44:36;9.38;;;5.43;;
54795;SDS011;40693;43.884;20.340;2024-03-25T06:47:02;15.00;;;6.30;;
54795;SDS011;40693;43.884;20.340;2024-03-25T06:49:28;12.55;;;5.72;;
54795;SDS011;40693;43.884;20.340;2024-03-25T06:51:54;8.35;;;5.15;;
54795;SDS011;40693;43.884;20.340;2024-03-25T06:54:22;8.80;;;4.50;;
54795;SDS011;40693;43.884;20.340;2024-03-25T06:56:47;12.70;;;5.57;;
54795;SDS011;40693;43.884;20.340;2024-03-25T06:59:15;9.40;;;5.57;;
54795;SDS011;40693;43.884;20.340;2024-03-25T07:01:40;10.77;;;5.15;;
54795;SDS011;40693;43.884;20.340;2024-03-25T07:04:06;10.80;;;5.03;;
54795;SDS011;40693;43.884;20.340;2024-03-25T07:06:32;9.55;;;3.95;;
54795;SDS011;40693;43.884;20.340;2024-03-25T07:08:58;9.90;;;4.82;;
54795;SDS011;40693;43.884;20.340;2024-03-25T07:11:24;10.38;;;4.20;;
54795;SDS011;40693;43.884;20.340;2024-03-25T07:13:50;8.13;;;4.10;;
54795;SDS011;40693;43.884;20.340;2024-03-25T07:16:15;11.98;;;5.22;;
54795;SDS011;40693;43.884;20.340;2024-03-25T07:18:41;7.25;;;3.50;;
54795;SDS011;40693;43.884;20.340;2024-03-25T07:21:07;11.82;;;6.30;;
54795;SDS011;40693;43.884;20.340;2024-03-25T07:23:33;10.75;;;4.35;;
54795;SDS011;40693;43.884;20.340;2024-03-25T07:25:59;8.75;;;3.90;;
54795;SDS011;40693;43.884;20.340;2024-03-25T07:28:25;10.20;;;4.35;;
54795;SDS011;40693;43.884;20.340;2024-03-25T07:30:50;7.75;;;4.03;;
54795;SDS011;40693;43.884;20.340;2024-03-25T07:33:16;8.32;;;4.07;;
54795;SDS011;40693;43.884;20.340;2024-03-25T07:35:44;9.10;;;4.78;;
54795;SDS011;40693;43.884;20.340;2024-03-25T07:38:14;5.97;;;4.03;;
54795;SDS011;40693;43.884;20.340;2024-03-25T07:40:42;10.02;;;5.43;;
54795;SDS011;40693;43.884;20.340;2024-03-25T07:43:08;8.13;;;4.85;;
54795;SDS011;40693;43.884;20.340;2024-03-25T07:45:34;10.35;;;3.53;;
54795;SDS011;40693;43.884;20.340;2024-03-25T07:48:00;9.40;;;5.03;;
54795;SDS011;40693;43.884;20.340;2024-03-25T07:50:26;11.32;;;5.32;;
54795;SDS011;40693;43.884;20.340;2024-03-25T07:52:51;6.63;;;3.83;;
54795;SDS011;40693;43.884;20.340;2024-03-25T07:55:17;9.20;;;4.80;;
54795;SDS011;40693;43.884;20.340;2024-03-25T07:57:43;8.40;;;4.97;;
54795;SDS011;40693;43.884;20.340;2024-03-25T08:00:15;8.68;;;4.97;;
54795;SDS011;40693;43.884;20.340;2024-03-25T08:02:41;10.50;;;5.03;;
54795;SDS011;40693;43.884;20.340;2024-03-25T08:05:07;8.90;;;4.47;;
54795;SDS011;40693;43.884;20.340;2024-03-25T08:07:33;6.43;;;3.50;;
54795;SDS011;40693;43.884;20.340;2024-03-25T08:09:59;9.23;;;5.47;;
54795;SDS011;40693;43.884;20.340;2024-03-25T08:12:25;10.15;;;4.22;;
54795;SDS011;40693;43.884;20.340;2024-03-25T08:14:51;9.80;;;5.20;;
54795;SDS011;40693;43.884;20.340;2024-03-25T08:17:17;11.90;;;5.22;;
54795;SDS011;40693;43.884;20.340;2024-03-25T08:19:42;8.65;;;4.07;;
54795;SDS011;40693;43.884;20.340;2024-03-25T08:22:08;16.20;;;7.43;;
54795;SDS011;40693;43.884;20.340;2024-03-25T08:24:34;10.57;;;5.93;;
54795;SDS011;40693;43.884;20.340;2024-03-25T08:27:00;9.68;;;5.75;;
54795;SDS011;40693;43.884;20.340;2024-03-25T08:29:26;10.70;;;5.22;;
54795;SDS011;40693;43.884;20.340;2024-03-25T08:31:52;11.20;;;5.60;;
54795;SDS011;40693;43.884;20.340;2024-03-25T08:34:18;7.82;;;4.15;;
54795;SDS011;40693;43.884;20.340;2024-03-25T08:36:44;12.93;;;5.65;;
54795;SDS011;40693;43.884;20.340;2024-03-25T08:39:10;8.98;;;4.93;;
54795;SDS011;40693;43.884;20.340;2024-03-25T08:41:36;7.20;;;4.15;;
54795;SDS011;40693;43.884;20.340;2024-03-25T08:44:01;10.07;;;5.22;;
54795;SDS011;40693;43.884;20.340;2024-03-25T08:46:27;8.02;;;5.45;;
54795;SDS011;40693;43.884;20.340;2024-03-25T08:48:53;11.00;;;5.63;;
54795;SDS011;40693;43.884;20.340;2024-03-25T08:51:19;12.27;;;5.70;;
54795;SDS011;40693;43.884;20.340;2024-03-25T08:53:45;10.25;;;5.20;;
54795;SDS011;40693;43.884;20.340;2024-03-25T08:56:10;10.90;;;5.18;;
54795;SDS011;40693;43.884;20.340;2024-03-25T08:58:36;9.98;;;4.32;;
54795;SDS011;40693;43.884;20.340;2024-03-25T09:01:03;7.40;;;4.82;;
54795;SDS011;40693;43.884;20.340;2024-03-25T09:03:28;10.52;;;7.05;;
54795;SDS011;40693;43.884;20.340;2024-03-25T09:05:55;9.70;;;6.13;;
54795;SDS011;40693;43.884;20.340;2024-03-25T09:08:21;14.15;;;5.93;;
54795;SDS011;40693;43.884;20.340;2024-03-25T09:10:47;8.27;;;4.75;;
54795;SDS011;40693;43.884;20.340;2024-03-25T09:13:28;12.38;;;6.22;;
54795;SDS011;40693;43.884;20.340;2024-03-25T09:15:55;8.45;;;4.18;;
54795;SDS011;40693;43.884;20.340;2024-03-25T09:18:21;9.38;;;5.05;;
54795;SDS011;40693;43.884;20.340;2024-03-25T09:20:47;9.35;;;4.57;;
54795;SDS011;40693;43.884;20.340;2024-03-25T09:23:13;8.10;;;4.75;;
54795;SDS011;40693;43.884;20.340;2024-03-25T09:25:39;16.42;;;7.50;;
54795;SDS011;40693;43.884;20.340;2024-03-25T09:28:05;8.40;;;4.63;;
54795;SDS011;40693;43.884;20.340;2024-03-25T09:30:31;10.48;;;5.10;;
54795;SDS011;40693;43.884;20.340;2024-03-25T09:32:57;8.80;;;3.63;;
54795;SDS011;40693;43.884;20.340;2024-03-25T09:35:23;13.13;;;5.57;;
54795;SDS011;40693;43.884;20.340;2024-03-25T09:37:49;6.35;;;3.88;;
54795;SDS011;40693;43.884;20.340;2024-03-25T09:40:15;8.45;;;3.63;;
54795;SDS011;40693;43.884;20.340;2024-03-25T09:42:48;5.63;;;3.65;;
54795;SDS011;40693;43.884;20.340;2024-03-25T09:45:17;4.90;;;3.80;;
54795;SDS011;40693;43.884;20.340;2024-03-25T09:47:47;5.18;;;2.80;;
54795;SDS011;40693;43.884;20.340;2024-03-25T09:50:14;6.20;;;2.33;;
54795;SDS011;40693;43.884;20.340;2024-03-25T09:55:15;6.50;;;2.53;;
54795;SDS011;40693;43.884;20.340;2024-03-25T09:57:42;3.08;;;1.85;;
54795;SDS011;40693;43.884;20.340;2024-03-25T10:00:08;4.50;;;2.70;;
54795;SDS011;40693;43.884;20.340;2024-03-25T10:02:36;4.28;;;2.60;;
54795;SDS011;40693;43.884;20.340;2024-03-25T10:05:04;6.55;;;2.33;;
54795;SDS011;40693;43.884;20.340;2024-03-25T10:07:32;6.93;;;2.35;;
54795;SDS011;40693;43.884;20.340;2024-03-25T10:09:58;3.95;;;2.10;;
54795;SDS011;40693;43.884;20.340;2024-03-25T10:12:31;3.95;;;2.60;;
54795;SDS011;40693;43.884;20.340;2024-03-25T10:14:58;5.68;;;2.53;;
54795;SDS011;40693;43.884;20.340;2024-03-25T10:17:24;6.28;;;3.42;;
54795;SDS011;40693;43.884;20.340;2024-03-25T10:19:55;3.85;;;2.53;;
54795;SDS011;40693;43.884;20.340;2024-03-25T10:22:23;4.05;;;2.25;;
54795;SDS011;40693;43.884;20.340;2024-03-25T10:24:49;3.78;;;1.80;;
54795;SDS011;40693;43.884;20.340;2024-03-25T10:27:19;2.80;;;2.03;;
54795;SDS011;40693;43.884;20.340;2024-03-25T10:29:51;4.15;;;2.05;;
54795;SDS011;40693;43.884;20.340;2024-03-25T10:32:18;3.92;;;2.00;;
54795;SDS011;40693;43.884;20.340;2024-03-25T10:34:44;3.08;;;1.88;;
54795;SDS011;40693;43.884;20.340;2024-03-25T10:37:10;4.30;;;2.22;;
54795;SDS011;40693;43.884;20.340;2024-03-25T10:39:39;3.53;;;1.92;;
54795;SDS011;40693;43.884;20.340;2024-03-25T10:42:08;4.90;;;2.22;;
54795;SDS011;40693;43.884;20.340;2024-03-25T10:44:38;2.72;;;1.83;;
54795;SDS011;40693;43.884;20.340;2024-03-25T10:47:07;4.93;;;2.17;;
54795;SDS011;40693;43.884;20.340;2024-03-25T10:52:20;4.85;;;2.85;;
54795;SDS011;40693;43.884;20.340;2024-03-25T10:54:48;3.60;;;1.67;;
54795;SDS011;40693;43.884;20.340;2024-03-25T10:57:15;2.97;;;1.52;;
54795;SDS011;40693;43.884;20.340;2024-03-25T10:59:42;2.55;;;1.73;;
54795;SDS011;40693;43.884;20.340;2024-03-25T11:02:10;3.42;;;1.42;;
54795;SDS011;40693;43.884;20.340;2024-03-25T11:04:36;1.42;;;0.85;;
54795;SDS011;40693;43.884;20.340;2024-03-25T11:07:12;2.83;;;1.48;;
54795;SDS011;40693;43.884;20.340;2024-03-25T11:09:40;1.73;;;1.13;;
54795;SDS011;40693;43.884;20.340;2024-03-25T11:12:06;4.20;;;1.95;;
54795;SDS011;40693;43.884;20.340;2024-03-25T11:14:35;1.58;;;1.20;;
54795;SDS011;40693;43.884;20.340;2024-03-25T11:17:01;3.65;;;1.50;;
54795;SDS011;40693;43.884;20.340;2024-03-25T11:19:28;3.22;;;1.15;;
54795;SDS011;40693;43.884;20.340;2024-03-25T11:22:06;2.35;;;1.40;;
54795;SDS011;40693;43.884;20.340;2024-03-25T11:24:34;1.55;;;0.88;;
54795;SDS011;40693;43.884;20.340;2024-03-25T11:27:05;2.38;;;1.30;;
54795;SDS011;40693;43.884;20.340;2024-03-25T11:29:31;2.85;;;1.67;;
54795;SDS011;40693;43.884;20.340;2024-03-25T11:31:58;1.98;;;0.95;;
54795;SDS011;40693;43.884;20.340;2024-03-25T11:34:28;6.57;;;2.10;;
54795;SDS011;40693;43.884;20.340;2024-03-25T11:36:54;1.35;;;0.98;;
54795;SDS011;40693;43.884;20.340;2024-03-25T11:39:23;6.10;;;2.45;;
54795;SDS011;40693;43.884;20.340;2024-03-25T11:41:53;10.05;;;2.88;;
54795;SDS011;40693;43.884;20.340;2024-03-25T11:44:19;6.78;;;3.00;;
54795;SDS011;40693;43.884;20.340;2024-03-25T11:46:49;3.40;;;2.25;;
54795;SDS011;40693;43.884;20.340;2024-03-25T11:49:16;5.43;;;3.35;;
54795;SDS011;40693;43.884;20.340;2024-03-25T11:51:43;2.38;;;1.27;;
54795;SDS011;40693;43.884;20.340;2024-03-25T11:54:11;7.20;;;3.17;;
54795;SDS011;40693;43.884;20.340;2024-03-25T11:56:40;6.20;;;2.90;;
54795;SDS011;40693;43.884;20.340;2024-03-25T11:59:08;7.05;;;2.20;;
54795;SDS011;40693;43.884;20.340;2024-03-25T12:01:34;6.50;;;3.15;;
54795;SDS011;40693;43.884;20.340;2024-03-25T12:04:16;5.35;;;2.67;;
54795;SDS011;40693;43.884;20.340;2024-03-25T12:06:43;3.95;;;1.70;;
54795;SDS011;40693;43.884;20.340;2024-03-25T12:09:10;5.95;;;2.40;;
54795;SDS011;40693;43.884;20.340;2024-03-25T12:11:54;3.83;;;2.30;;
54795;SDS011;40693;43.884;20.340;2024-03-25T12:14:21;7.57;;;3.08;;
54795;SDS011;40693;43.884;20.340;2024-03-25T12:16:49;4.97;;;2.55;;
54795;SDS011;40693;43.884;20.340;2024-03-25T12:19:16;3.53;;;2.08;;
54795;SDS011;40693;43.884;20.340;2024-03-25T12:21:43;7.15;;;2.80;;
54795;SDS011;40693;43.884;20.340;2024-03-25T12:24:09;2.55;;;1.77;;
54795;SDS011;40693;43.884;20.340;2024-03-25T12:26:36;4.05;;;2.17;;
54795;SDS011;40693;43.884;20.340;2024-03-25T12:29:02;3.38;;;2.35;;
54795;SDS011;40693;43.884;20.340;2024-03-25T12:31:29;4.97;;;2.92;;
54795;SDS011;40693;43.884;20.340;2024-03-25T12:33:55;6.78;;;2.20;;
54795;SDS011;40693;43.884;20.340;2024-03-25T12:36:21;3.05;;;2.15;;
54795;SDS011;40693;43.884;20.340;2024-03-25T12:38:57;7.32;;;4.47;;
54795;SDS011;40693;43.884;20.340;2024-03-25T12:41:25;4.15;;;2.00;;
54795;SDS011;40693;43.884;20.340;2024-03-25T12:43:51;4.07;;;2.63;;
54795;SDS011;40693;43.884;20.340;2024-03-25T12:46:17;2.75;;;1.73;;
54795;SDS011;40693;43.884;20.340;2024-03-25T12:48:43;2.92;;;1.67;;
54795;SDS011;40693;43.884;20.340;2024-03-25T12:51:13;2.92;;;1.98;;
54795;SDS011;40693;43.884;20.340;2024-03-25T12:53:40;4.55;;;2.53;;
54795;SDS011;40693;43.884;20.340;2024-03-25T12:56:06;2.80;;;1.63;;
54795;SDS011;40693;43.884;20.340;2024-03-25T12:58:33;2.92;;;1.58;;
54795;SDS011;40693;43.884;20.340;2024-03-25T13:00:59;2.63;;;1.08;;
54795;SDS011;40693;43.884;20.340;2024-03-25T13:03:25;1.80;;;1.65;;
54795;SDS011;40693;43.884;20.340;2024-03-25T13:05:51;5.03;;;2.10;;
54795;SDS011;40693;43.884;20.340;2024-03-25T13:08:16;3.10;;;1.60;;
54795;SDS011;40693;43.884;20.340;2024-03-25T13:10:42;5.43;;;2.40;;
54795;SDS011;40693;43.884;20.340;2024-03-25T13:13:09;1.50;;;1.27;;
54795;SDS011;40693;43.884;20.340;2024-03-25T13:15:35;3.13;;;1.92;;
54795;SDS011;40693;43.884;20.340;2024-03-25T13:18:01;2.25;;;1.42;;
54795;SDS011;40693;43.884;20.340;2024-03-25T13:20:27;5.32;;;1.58;;
54795;SDS011;40693;43.884;20.340;2024-03-25T13:22:53;5.15;;;2.45;;
54795;SDS011;40693;43.884;20.340;2024-03-25T13:25:24;4.57;;;1.90;;
54795;SDS011;40693;43.884;20.340;2024-03-25T13:27:53;3.33;;;1.90;;
54795;SDS011;40693;43.884;20.340;2024-03-25T13:30:19;4.25;;;1.58;;
54795;SDS011;40693;43.884;20.340;2024-03-25T13:32:45;3.70;;;1.70;;
54795;SDS011;40693;43.884;20.340;2024-03-25T13:35:10;2.38;;;1.42;;
54795;SDS011;40693;43.884;20.340;2024-03-25T13:37:36;5.95;;;1.63;;
54795;SDS011;40693;43.884;20.340;2024-03-25T13:40:02;1.48;;;1.38;;
54795;SDS011;40693;43.884;20.340;2024-03-25T13:42:30;3.30;;;2.13;;
54795;SDS011;40693;43.884;20.340;2024-03-25T13:44:57;3.80;;;1.50;;
54795;SDS011;40693;43.884;20.340;2024-03-25T13:47:22;2.80;;;1.83;;
54795;SDS011;40693;43.884;20.340;2024-03-25T13:49:48;5.07;;;2.75;;
54795;SDS011;40693;43.884;20.340;2024-03-25T13:52:14;4.45;;;2.35;;
54795;SDS011;40693;43.884;20.340;2024-03-25T13:54:40;5.18;;;2.47;;
54795;SDS011;40693;43.884;20.340;2024-03-25T13:57:06;4.32;;;2.65;;
54795;SDS011;40693;43.884;20.340;2024-03-25T13:59:31;4.38;;;1.90;;
54795;SDS011;40693;43.884;20.340;2024-03-25T14:01:57;3.60;;;1.88;;
54795;SDS011;40693;43.884;20.340;2024-03-25T14:04:23;5.63;;;3.03;;
54795;SDS011;40693;43.884;20.340;2024-03-25T14:06:49;4.53;;;2.10;;
54795;SDS011;40693;43.884;20.340;2024-03-25T14:09:24;3.30;;;2.15;;
54795;SDS011;40693;43.884;20.340;2024-03-25T14:11:51;5.20;;;2.75;;
54795;SDS011;40693;43.884;20.340;2024-03-25T14:14:17;7.60;;;3.72;;
54795;SDS011;40693;43.884;20.340;2024-03-25T14:16:43;8.18;;;3.78;;
54795;SDS011;40693;43.884;20.340;2024-03-25T14:19:08;9.85;;;5.75;;
54795;SDS011;40693;43.884;20.340;2024-03-25T14:21:34;9.93;;;5.47;;
54795;SDS011;40693;43.884;20.340;2024-03-25T14:24:00;9.90;;;4.40;;
54795;SDS011;40693;43.884;20.340;2024-03-25T14:26:26;10.77;;;5.40;;
54795;SDS011;40693;43.884;20.340;2024-03-25T14:28:52;9.68;;;4.68;;
54795;SDS011;40693;43.884;20.340;2024-03-25T14:31:18;7.13;;;3.30;;